Terminal Aerodrome Forecast
Issued by NWS Louisville, KY

Home | Current Version | Previous Version | Text Only | Print | Product List | Glossary On
Versions: 1 2 3 4 5 6 7 8 9 10 11 12 13 14 15 16 17
000
FTUS43 KLMK 181017 AAA
TAFSDF
TAF AMD
KSDF 181017Z 1810/1912 00000KT 6SM BR BKN150
     FM181300 21004KT P6SM BKN120
     FM181800 21005KT P6SM SCT050 PROB30 1819/1823 -TSRA SCT050CB
     FM190000 15003KT P6SM SCT080=

USA.gov is the U.S. government's official web portal to all federal, state and local government web resources and services.